Terminal Aerodrome Forecast
Issued by NWS

Home | Current Version | Previous Version | Text Only | Print | Product List | Glossary On
Versions: 1 2 3 4 5 6 7 8 9 10 11 12 13 14
916
FTAK31 PAJN 280527
TAFAWG
TAF
PAWG 280527Z 2806/0106 13006KT P6SM SCT100
     FM280900 12007KT P6SM OVC080
     FM281300 12008KT 6SM -SN SCT015 OVC030
     FM281500 12010KT 3/4SM -SN OVC010
     FM282100 12007KT 3SM -SN OVC018
      AMD LTD TO CLD VIS AND WIND 2806/2815=

USA.gov is the U.S. government's official web portal to all federal, state and local government web resources and services.